• Join FlightAware (Why Join?)
  • Login
  • US Flag 
03:39AM EST


 

Airport Tracker/Info


-or-


 

Live Flight TrackerFlight Track Log ✈ WAV761 ✈ 08-Jan-2014 ✈ PATA / TAL - PAFA / FAI

Flight Track Log - Related Links

Times and Time Zones

All times are in EST time to prevent confusion due to time zone crossing. See the WAV761 flight status page for this flight to view local times or setup timezone preferences in your user account.

Time Position Orientation Groundspeed Altitude Reporting Facility
EST Latitude Longitude Course Direction KTS MPH feet Rate Location/Type
10:23PM 65.1333 -151.8000 100° East 140 161 3,300  Level Anchorage Center
10:24PM 65.1333 -151.7167 90° East 130 150 4,000 720 Climbing Anchorage Center
10:25PM 65.1333 -151.6167 90° East 140 161 4,800 660 Climbing Anchorage Center
10:26PM 65.1167 -151.5167 112° Southeast 150 173 5,400 600 Climbing Anchorage Center
10:27PM 65.1167 -151.4167 90° East 170 196 6,000 540 Climbing Anchorage Center
10:28PM 65.1293 -151.4777 100° East  Level Estimated
10:28PM 65.1167 -151.3000 90° East 170 196 6,600  Level Anchorage Center
10:29PM 65.1212 -151.3730 100° East  Level FlightAware Approximate
10:29PM 65.1000 -151.2000 112° Southeast 180 207 7,000  Level Anchorage Center
10:30PM 65.1000 -151.0667 90° East 190 219 7,000  Level Anchorage Center
10:31PM 65.0833 -150.9667 112° Southeast 180 207 7,000  Level Anchorage Center
10:32PM 65.0833 -150.8333 90° East 190 219 7,000  Level Anchorage Center
10:33PM 65.0667 -150.7167 109° East 180 207 7,000  Level Anchorage Center
10:35PM 65.0667 -150.6000 90° East 190 219 7,000  Level Anchorage Center
10:36PM 65.0500 -150.4833 109° East 180 207 7,000  Level Anchorage Center
10:37PM 65.0333 -150.3667 109° East 180 207 7,000  Level Anchorage Center
10:38PM 65.0167 -150.2500 109° East 180 207 7,000  Level Anchorage Center
10:39PM 65.0167 -150.1167 90° East 190 219 7,000  Level Anchorage Center
10:40PM 65.0000 -150.0000 109° East 180 207 7,000  Level Anchorage Center
10:41PM 65.0000 -149.8833 90° East 180 207 7,000  Level Anchorage Center
10:42PM 64.9833 -149.7667 109° East 190 219 7,000  Level Anchorage Center
10:43PM 64.9833 -149.6333 90° East 180 207 7,000  Level Anchorage Center
10:44PM 64.9667 -149.5167 109° East 190 219 7,000  Level Anchorage Center
10:46PM 64.9479 -149.3152 102° East  Level FlightAware Approximate
10:53PM 64.8759 -148.5977 108° East  Level FlightAware Approximate
10:54PM 64.8635 -148.4966 101° East  Level FlightAware Approximate
10:55PM 64.8545 -148.3933 102° East  Level FlightAware Approximate
10:56PM 64.8455 -148.2901 102° East  Level FlightAware Approximate
10:57PM 64.8364 -148.1869 102° East  Level FlightAware Approximate
10:58PM 64.8272 -148.0838 102° East  Level FlightAware Approximate
10:59PM 64.8179 -147.9809 102° East  Level FlightAware Approximate
11:00PM 64.8044 -147.8807 109° East  Level FlightAware Approximate
11:01PM 64.8000 -147.8500 109° East  Level FlightAware Approximate
11:02PM 64.8151 -147.8564 109° East  Level Estimated
11:03PM 64.8151 -147.8564 109° East  Level Estimated
11:04PM 64.8151 -147.8564 109° East  Level Estimated
11:05PM 64.8151 -147.8564 109° East  Level Estimated
11:06PM 64.8151 -147.8564 109° East  Level Estimated
11:07PM 64.8151 -147.8564 109° East  Level Estimated
11:08PM 64.8151 -147.8564 109° East  Level Estimated
11:09PM 64.8151 -147.8564 109° East  Level Estimated
11:10PM 64.8151 -147.8564 109° East  Level Estimated
11:11PM 64.8151 -147.8564 109° East  Level Estimated
11:12PM 64.8151 -147.8564 109° East  Level Estimated
11:13PM 64.8151 -147.8564 109° East  Level Estimated
11:14PM 64.8151 -147.8564 109° East  Level Estimated
11:15PM 64.8151 -147.8564 109° East  Level Estimated
11:16PM 64.8151 -147.8564 109° East  Level Estimated
11:17PM 64.8151 -147.8564 109° East  Level Estimated
11:18PM 64.8151 -147.8564 109° East  Level Estimated